Time;durP1;ratioP1;P1;durP2;ratioP2;P2;SDS_P1;SDS_P2;PMS_P1;PMS_P2;Temp;Humidity;BMP_temperature;BMP_pressure;BME280_temperature;BME280_humidity;BME280_pressure;Samples;Min_cycle;Max_cycle;Signal;HPM_P1;HPM_P2
2023/06/22 00:02:17;;;;;;;3.83;3.30;;;28.90;45.50;;;;;;5107553;27;45301;-68
2023/06/22 00:04:44;;;;;;;3.50;3.20;;;28.90;45.40;;;;;;5105469;27;45321;-68
2023/06/22 00:07:11;;;;;;;3.05;2.80;;;28.90;45.40;;;;;;5108207;27;45321;-69
2023/06/22 00:09:37;;;;;;;3.40;3.00;;;28.90;45.50;;;;;;5107272;27;45395;-68
2023/06/22 00:12:05;;;;;;;3.50;3.03;;;28.90;45.40;;;;;;5107828;27;45273;-69
2023/06/22 00:14:32;;;;;;;3.45;3.15;;;28.90;45.50;;;;;;5108181;27;45283;-67
2023/06/22 00:16:59;;;;;;;3.00;2.70;;;28.80;45.50;;;;;;5107964;27;45435;-67
2023/06/22 00:19:27;;;;;;;4.38;3.22;;;28.80;45.50;;;;;;5107607;27;46742;-69
2023/06/22 00:21:54;;;;;;;4.80;3.63;;;28.80;45.50;;;;;;5107723;27;45242;-68
2023/06/22 00:24:21;;;;;;;3.58;2.90;;;28.80;45.50;;;;;;5107857;27;45185;-69
2023/06/22 00:26:48;;;;;;;4.13;3.03;;;28.80;45.60;;;;;;5107880;27;45371;-69
2023/06/22 00:29:15;;;;;;;3.97;2.88;;;28.80;45.60;;;;;;5107415;27;45526;-68
2023/06/22 00:31:42;;;;;;;3.47;3.00;;;28.80;45.60;;;;;;5107457;27;45391;-69
2023/06/22 00:34:09;;;;;;;5.15;3.15;;;28.70;45.60;;;;;;5107747;27;45569;-68
2023/06/22 00:36:40;;;;;;;4.03;3.17;;;28.70;45.50;;;;;;5107621;27;45296;-69
2023/06/22 00:39:07;;;;;;;3.45;2.92;;;28.70;45.40;;;;;;5107271;27;45464;-68
2023/06/22 00:41:34;;;;;;;4.82;3.22;;;28.70;45.70;;;;;;5107657;27;45364;-68
2023/06/22 00:44:01;;;;;;;3.58;3.10;;;28.60;45.60;;;;;;5107379;27;45197;-68
2023/06/22 00:46:28;;;;;;;3.30;3.00;;;28.60;45.50;;;;;;5107583;27;45250;-68
2023/06/22 00:48:57;;;;;;;2.78;2.58;;;28.70;45.70;;;;;;5106225;27;46379;-68
2023/06/22 00:51:24;;;;;;;4.57;3.13;;;28.60;45.60;;;;;;5106944;27;45409;-68
2023/06/22 00:53:53;;;;;;;3.90;3.28;;;28.60;45.60;;;;;;5107347;27;45308;-69
2023/06/22 00:56:24;;;;;;;3.55;3.08;;;28.60;45.60;;;;;;5107423;27;45301;-69
2023/06/22 00:58:52;;;;;;;3.40;2.92;;;28.60;45.60;;;;;;5107027;27;47328;-69
2023/06/22 01:01:22;;;;;;;2.88;2.60;;;28.60;45.70;;;;;;5107035;27;45429;-69
2023/06/22 01:03:50;;;;;;;3.40;3.00;;;28.50;45.60;;;;;;5106931;27;45375;-68
2023/06/22 01:06:20;;;;;;;4.82;2.97;;;28.50;45.60;;;;;;5107080;27;45289;-68
2023/06/22 01:08:50;;;;;;;3.03;2.72;;;28.50;45.60;;;;;;5106715;27;46728;-69
2023/06/22 01:11:21;;;;;;;3.28;2.97;;;28.50;45.60;;;;;;5106929;27;45264;-68
2023/06/22 01:13:51;;;;;;;4.65;2.70;;;28.50;45.70;;;;;;5107004;27;45252;-68
2023/06/22 01:16:19;;;;;;;3.20;2.90;;;28.50;45.70;;;;;;5107158;27;45368;-68
2023/06/22 01:18:46;;;;;;;4.43;2.78;;;28.50;45.60;;;;;;5106755;27;46396;-68
2023/06/22 01:21:17;;;;;;;3.08;2.78;;;28.40;45.70;;;;;;5106982;27;45261;-68
2023/06/22 01:23:59;;;;;;;4.45;3.00;;;28.40;45.70;;;;;;5106887;27;45383;-68
2023/06/22 01:26:34;;;;;;;3.63;2.97;;;28.40;45.80;;;;;;5107256;27;45286;-67
2023/06/22 01:29:03;;;;;;;3.00;2.78;;;28.40;45.70;;;;;;5106843;27;46516;-68
2023/06/22 01:31:30;;;;;;;3.50;3.00;;;28.40;45.80;;;;;;5106577;27;45328;-68
2023/06/22 01:33:58;;;;;;;5.00;2.95;;;28.40;45.80;;;;;;5106848;27;45436;-68
2023/06/22 01:36:25;;;;;;;4.68;3.08;;;28.30;45.90;;;;;;5106704;27;45300;-68
2023/06/22 01:38:52;;;;;;;2.85;2.65;;;28.30;45.80;;;;;;5106403;27;45224;-68
2023/06/22 01:41:18;;;;;;;5.00;2.63;;;28.30;45.80;;;;;;5106429;27;45399;-68
2023/06/22 01:43:45;;;;;;;4.22;3.30;;;28.30;45.80;;;;;;5106528;27;45341;-68
2023/06/22 01:46:13;;;;;;;5.60;3.20;;;28.30;45.90;;;;;;5106576;27;45424;-68
2023/06/22 01:48:40;;;;;;;3.50;3.00;;;28.30;46.00;;;;;;5106226;27;47309;-67
2023/06/22 01:51:07;;;;;;;4.80;3.40;;;28.30;46.00;;;;;;5106224;27;45319;-68
2023/06/22 01:53:34;;;;;;;3.33;3.03;;;28.20;45.90;;;;;;5106389;27;45333;-68
2023/06/22 01:56:01;;;;;;;4.13;2.70;;;28.20;46.00;;;;;;5106459;27;45446;-67
2023/06/22 01:58:28;;;;;;;3.25;2.75;;;28.20;46.00;;;;;;5106118;27;45359;-68
2023/06/22 02:00:58;;;;;;;3.58;2.50;;;28.20;46.00;;;;;;5105813;27;45264;-67
2023/06/22 02:03:31;;;;;;;3.53;2.95;;;28.20;46.00;;;;;;5105933;27;45407;-68
2023/06/22 02:06:02;;;;;;;3.33;3.00;;;28.20;46.00;;;;;;5106362;27;45476;-68
2023/06/22 02:08:30;;;;;;;3.30;3.00;;;28.20;46.10;;;;;;5105994;27;45331;-67
2023/06/22 02:10:57;;;;;;;3.05;2.75;;;28.20;46.20;;;;;;5105974;27;45257;-67
2023/06/22 02:13:25;;;;;;;3.00;2.70;;;28.10;46.00;;;;;;5106286;27;45391;-67
2023/06/22 02:15:52;;;;;;;2.83;2.58;;;28.10;46.10;;;;;;5106361;27;45387;-68
2023/06/22 02:18:20;;;;;;;3.90;3.33;;;28.10;46.10;;;;;;5105809;27;46593;-68
2023/06/22 02:20:48;;;;;;;2.95;2.60;;;28.10;46.20;;;;;;5105926;27;45162;-68
2023/06/22 02:23:15;;;;;;;3.45;3.10;;;28.10;46.20;;;;;;5106134;27;45359;-68
2023/06/22 02:25:44;;;;;;;3.67;3.15;;;28.10;46.20;;;;;;5106162;27;45432;-68
2023/06/22 02:28:10;;;;;;;5.60;3.28;;;28.10;46.20;;;;;;5105710;27;45269;-68
2023/06/22 02:30:38;;;;;;;3.97;2.90;;;28.10;46.20;;;;;;5105915;27;45360;-67
2023/06/22 02:33:10;;;;;;;4.07;3.20;;;28.00;46.20;;;;;;5105857;27;45344;-67
2023/06/22 02:35:36;;;;;;;3.70;3.10;;;28.00;46.20;;;;;;5106060;27;45311;-67
2023/06/22 02:38:05;;;;;;;3.45;3.13;;;28.00;46.30;;;;;;5105829;27;47297;-68
2023/06/22 02:40:32;;;;;;;3.45;3.15;;;28.00;46.20;;;;;;5097145;27;46334;-67
2023/06/22 02:43:01;;;;;;;3.05;2.60;;;28.00;46.30;;;;;;5105862;27;45277;-68
2023/06/22 02:45:28;;;;;;;3.28;2.97;;;28.00;46.20;;;;;;5105856;27;45230;-68
2023/06/22 02:47:55;;;;;;;3.17;2.88;;;28.00;46.40;;;;;;5105473;27;45305;-68
2023/06/22 02:50:22;;;;;;;3.67;3.30;;;27.90;46.20;;;;;;5105556;27;45403;-68
2023/06/22 02:52:49;;;;;;;3.40;3.10;;;27.90;46.30;;;;;;5105656;27;45308;-68
2023/06/22 02:55:17;;;;;;;3.78;2.97;;;27.90;46.30;;;;;;5105971;27;45382;-68
2023/06/22 02:57:46;;;;;;;3.35;3.05;;;27.90;46.40;;;;;;5105316;27;47318;-68
2023/06/22 03:00:17;;;;;;;3.60;3.05;;;27.80;46.30;;;;;;5105329;27;45462;-68
2023/06/22 03:02:44;;;;;;;3.40;3.08;;;27.90;46.40;;;;;;5105374;27;45299;-68
2023/06/22 03:05:13;;;;;;;2.97;2.67;;;27.80;46.40;;;;;;5105511;27;45348;-68
2023/06/22 03:07:40;;;;;;;3.50;3.20;;;27.80;46.30;;;;;;5105281;27;45350;-68
2023/06/22 03:10:09;;;;;;;3.30;3.00;;;27.80;46.30;;;;;;5105301;27;45257;-68
2023/06/22 03:12:37;;;;;;;4.85;2.85;;;27.80;46.50;;;;;;5106030;27;45412;-68
2023/06/22 03:15:05;;;;;;;3.42;3.10;;;27.80;46.40;;;;;;5109198;27;45288;-67
2023/06/22 03:17:32;;;;;;;4.13;3.38;;;27.70;46.50;;;;;;5108593;27;45292;-68
2023/06/22 03:19:59;;;;;;;3.65;3.03;;;27.70;46.50;;;;;;5108692;27;45567;-68
2023/06/22 03:22:26;;;;;;;3.58;3.28;;;27.70;46.50;;;;;;5108819;27;45404;-68
2023/06/22 03:24:52;;;;;;;3.22;2.78;;;27.70;46.50;;;;;;5108816;27;45394;-68
2023/06/22 03:27:19;;;;;;;3.00;2.70;;;27.70;46.50;;;;;;5108570;27;45356;-68
2023/06/22 03:29:47;;;;;;;4.72;2.97;;;27.70;46.50;;;;;;5108492;27;45250;-67
2023/06/22 03:32:14;;;;;;;3.72;3.35;;;27.70;46.50;;;;;;5108799;27;45485;-68
2023/06/22 03:34:46;;;;;;;3.58;2.97;;;27.70;46.60;;;;;;5108632;27;45494;-68
2023/06/22 03:37:13;;;;;;;3.72;2.85;;;27.60;46.50;;;;;;5108345;27;46597;-68
2023/06/22 03:39:40;;;;;;;3.67;3.08;;;27.60;46.50;;;;;;5108372;27;45332;-68
2023/06/22 03:42:07;;;;;;;3.33;3.03;;;27.60;46.50;;;;;;5108444;27;45443;-67
2023/06/22 03:44:36;;;;;;;4.07;3.25;;;27.60;46.60;;;;;;5108642;27;45474;-68
2023/06/22 03:47:06;;;;;;;3.25;2.85;;;27.60;46.60;;;;;;5107965;27;45473;-67
2023/06/22 03:49:33;;;;;;;4.43;3.10;;;27.60;46.60;;;;;;5107980;27;45333;-68
2023/06/22 03:52:00;;;;;;;3.38;2.90;;;27.50;46.60;;;;;;5108271;27;45335;-68
2023/06/22 03:54:27;;;;;;;3.65;3.22;;;27.50;46.60;;;;;;5108377;27;45170;-68
2023/06/22 03:56:54;;;;;;;3.50;3.15;;;27.50;46.70;;;;;;5107983;27;45505;-68
2023/06/22 03:59:21;;;;;;;3.20;2.90;;;27.50;46.70;;;;;;5108191;27;45227;-68
2023/06/22 04:01:48;;;;;;;3.22;2.90;;;27.50;46.70;;;;;;5108200;27;45312;-68
2023/06/22 04:04:18;;;;;;;2.85;2.65;;;27.50;47.30;;;;;;5108253;27;45320;-68
2023/06/22 04:06:44;;;;;;;4.15;2.63;;;27.50;46.70;;;;;;5108037;27;46645;-68
2023/06/22 04:09:12;;;;;;;3.20;2.90;;;27.50;46.70;;;;;;5108005;27;45390;-68
2023/06/22 04:11:38;;;;;;;3.03;2.72;;;27.50;46.80;;;;;;5108056;27;45411;-68
2023/06/22 04:14:05;;;;;;;3.20;2.78;;;27.40;46.70;;;;;;5108195;27;45292;-68
2023/06/22 04:16:32;;;;;;;3.10;2.80;;;27.40;46.70;;;;;;5107647;27;47318;-68
2023/06/22 04:18:59;;;;;;;4.28;3.10;;;27.40;46.70;;;;;;5107747;27;45262;-67
2023/06/22 04:21:27;;;;;;;3.80;3.25;;;27.40;46.70;;;;;;5107846;27;45376;-67
2023/06/22 04:23:54;;;;;;;3.65;2.90;;;27.40;46.70;;;;;;5107984;27;45347;-67
2023/06/22 04:26:21;;;;;;;4.00;3.33;;;27.40;46.70;;;;;;5107460;27;46565;-67
2023/06/22 04:28:51;;;;;;;3.28;3.00;;;27.40;46.70;;;;;;5107616;27;45347;-69
2023/06/22 04:31:18;;;;;;;3.20;2.88;;;27.30;46.60;;;;;;5107605;27;45383;-68
2023/06/22 04:33:51;;;;;;;3.05;2.67;;;27.30;46.70;;;;;;5107924;27;45289;-68
2023/06/22 04:36:18;;;;;;;3.33;2.95;;;27.30;46.60;;;;;;5107154;27;46990;-69
2023/06/22 04:38:46;;;;;;;3.20;2.90;;;27.30;46.70;;;;;;5107773;27;45663;-69
2023/06/22 04:41:23;;;;;;;3.30;3.00;;;27.30;47.20;;;;;;5107386;27;45324;-69
2023/06/22 04:43:53;;;;;;;3.25;2.95;;;27.30;46.60;;;;;;5107576;27;45299;-69
2023/06/22 04:46:20;;;;;;;3.08;2.88;;;27.30;46.50;;;;;;5106958;27;46664;-67
2023/06/22 04:48:47;;;;;;;3.80;2.85;;;27.30;46.50;;;;;;5107264;27;45336;-66
2023/06/22 04:51:14;;;;;;;3.17;2.88;;;27.30;46.50;;;;;;5107312;27;45342;-69
2023/06/22 04:53:41;;;;;;;2.95;2.70;;;27.30;46.50;;;;;;5107534;27;45380;-68
2023/06/22 04:56:09;;;;;;;5.90;3.00;;;27.20;46.40;;;;;;5107268;27;45483;-68
2023/06/22 04:58:36;;;;;;;4.22;2.70;;;27.30;46.40;;;;;;5107038;27;45311;-68
2023/06/22 05:01:03;;;;;;;3.47;3.17;;;27.20;46.30;;;;;;5107109;27;45273;-68
2023/06/22 05:03:30;;;;;;;2.90;2.60;;;27.30;46.40;;;;;;5107262;27;45594;-68
2023/06/22 05:05:57;;;;;;;3.20;2.75;;;27.30;46.40;;;;;;5106831;27;46317;-68
2023/06/22 05:08:26;;;;;;;3.88;2.90;;;27.20;46.30;;;;;;5106898;27;45319;-68
2023/06/22 05:10:53;;;;;;;2.63;2.42;;;27.20;46.30;;;;;;5106813;27;45321;-68
2023/06/22 05:13:21;;;;;;;4.47;2.85;;;27.20;46.40;;;;;;5107065;27;45325;-68
2023/06/22 05:15:48;;;;;;;3.20;2.63;;;27.20;46.40;;;;;;5106917;27;45482;-68
2023/06/22 05:18:15;;;;;;;4.57;3.10;;;27.20;46.30;;;;;;5106601;27;45268;-68
2023/06/22 05:20:42;;;;;;;3.05;2.83;;;27.20;46.30;;;;;;5107145;27;45432;-69
2023/06/22 05:23:08;;;;;;;2.78;2.55;;;27.20;46.30;;;;;;5107109;27;45297;-69
2023/06/22 05:25:35;;;;;;;2.70;2.50;;;27.20;46.30;;;;;;5106998;27;45393;-69
2023/06/22 05:28:11;;;;;;;3.28;2.97;;;27.20;46.30;;;;;;5106630;27;45424;-68
2023/06/22 05:30:39;;;;;;;2.95;2.45;;;27.20;46.30;;;;;;5106708;27;45293;-68
2023/06/22 05:33:06;;;;;;;2.83;2.63;;;27.20;46.30;;;;;;5106877;27;45303;-69
2023/06/22 05:35:33;;;;;;;2.63;2.42;;;27.20;46.20;;;;;;5097408;27;46421;-70
2023/06/22 05:38:00;;;;;;;3.00;2.50;;;27.20;46.20;;;;;;5104018;27;45593;-69
2023/06/22 05:40:27;;;;;;;3.83;2.88;;;27.20;46.20;;;;;;5106515;27;45401;-67
2023/06/22 05:42:54;;;;;;;2.65;2.45;;;27.20;46.20;;;;;;5106680;27;45360;-68
2023/06/22 05:45:20;;;;;;;2.72;2.53;;;27.20;46.20;;;;;;5106604;27;45372;-67
2023/06/22 05:47:48;;;;;;;3.20;2.72;;;27.20;46.20;;;;;;5106317;27;45387;-68
2023/06/22 05:50:15;;;;;;;3.17;2.88;;;27.20;46.20;;;;;;5106622;27;45367;-67
2023/06/22 05:52:42;;;;;;;2.75;2.47;;;27.20;46.20;;;;;;5106479;27;45515;-67
2023/06/22 05:55:10;;;;;;;3.30;2.58;;;27.20;46.20;;;;;;5106141;27;45488;-68
2023/06/22 05:57:36;;;;;;;4.13;2.80;;;27.20;46.20;;;;;;5106305;27;45312;-67
2023/06/22 06:00:06;;;;;;;2.63;2.42;;;27.20;46.20;;;;;;5106267;27;45264;-68
2023/06/22 06:02:33;;;;;;;2.90;2.70;;;27.20;46.20;;;;;;5098021;27;45300;-69
2023/06/22 06:05:03;;;;;;;3.22;2.83;;;27.20;46.20;;;;;;5106086;27;45480;-69
2023/06/22 06:07:30;;;;;;;3.53;2.67;;;27.30;46.20;;;;;;5106116;27;45269;-67
2023/06/22 06:09:56;;;;;;;3.22;2.67;;;27.30;46.20;;;;;;5106286;27;45350;-69
2023/06/22 06:12:23;;;;;;;2.85;2.58;;;27.30;46.20;;;;;;5106224;27;45303;-69
2023/06/22 06:14:51;;;;;;;2.90;2.60;;;27.30;46.20;;;;;;5105890;27;45472;-68
2023/06/22 06:17:18;;;;;;;3.63;2.90;;;27.30;46.20;;;;;;5106054;27;45320;-68
2023/06/22 06:19:44;;;;;;;3.03;2.60;;;27.30;46.20;;;;;;5103459;27;45335;-68
2023/06/22 06:22:13;;;;;;;3.40;2.90;;;27.30;46.20;;;;;;5106258;27;45391;-68
2023/06/22 06:24:39;;;;;;;2.70;2.50;;;27.30;46.20;;;;;;5105860;27;46684;-68
2023/06/22 06:27:06;;;;;;;3.10;2.75;;;27.30;46.20;;;;;;5105896;27;45332;-68
2023/06/22 06:29:33;;;;;;;3.00;2.75;;;27.30;46.20;;;;;;5097690;27;45257;-68
2023/06/22 06:32:00;;;;;;;2.75;2.50;;;27.30;46.20;;;;;;5105969;27;45304;-68
2023/06/22 06:34:26;;;;;;;2.72;2.53;;;27.30;46.10;;;;;;5105974;27;45373;-68
2023/06/22 06:36:53;;;;;;;4.50;2.50;;;27.30;46.20;;;;;;5105675;27;45420;-69
2023/06/22 06:39:22;;;;;;;2.83;2.63;;;27.40;46.80;;;;;;5105771;27;45325;-68
2023/06/22 06:41:49;;;;;;;2.97;2.75;;;27.30;46.20;;;;;;5105972;27;45374;-68
2023/06/22 06:44:16;;;;;;;3.33;2.45;;;27.40;46.20;;;;;;5105347;27;46637;-68
2023/06/22 06:46:43;;;;;;;2.97;2.72;;;27.40;46.30;;;;;;5105390;27;45343;-68
2023/06/22 06:49:10;;;;;;;3.15;2.55;;;27.40;46.20;;;;;;5108570;27;45442;-68
2023/06/22 06:51:36;;;;;;;3.22;2.92;;;27.40;46.20;;;;;;5109528;27;45347;-69
2023/06/22 06:54:04;;;;;;;3.70;2.63;;;27.40;46.50;;;;;;5108941;27;46386;-68
2023/06/22 06:56:33;;;;;;;3.22;2.92;;;27.40;46.20;;;;;;5108979;27;45408;-68
2023/06/22 06:58:59;;;;;;;6.32;3.25;;;27.40;46.50;;;;;;5109049;27;45351;-68
2023/06/22 07:01:26;;;;;;;2.85;2.65;;;27.40;46.60;;;;;;5109145;27;45458;-69
2023/06/22 07:03:53;;;;;;;3.00;2.65;;;27.40;46.20;;;;;;5108655;27;46395;-68
2023/06/22 07:06:20;;;;;;;2.85;2.53;;;27.40;46.20;;;;;;5108803;27;45258;-69
2023/06/22 07:08:47;;;;;;;2.90;2.60;;;27.40;46.10;;;;;;5108828;27;45375;-69
2023/06/22 07:11:13;;;;;;;3.63;2.65;;;27.50;46.10;;;;;;5109146;27;45375;-68
2023/06/22 07:13:42;;;;;;;3.70;2.63;;;27.50;46.00;;;;;;5108561;27;45369;-68
2023/06/22 07:16:08;;;;;;;2.85;2.63;;;27.50;46.00;;;;;;5108668;27;45245;-68
2023/06/22 07:18:35;;;;;;;2.97;2.60;;;27.50;45.90;;;;;;5108540;27;45281;-67
2023/06/22 07:21:03;;;;;;;2.78;2.50;;;27.50;45.80;;;;;;5108896;27;45382;-67
2023/06/22 07:23:30;;;;;;;3.45;2.50;;;27.50;45.80;;;;;;5108361;27;46701;-67
2023/06/22 07:25:57;;;;;;;2.67;2.47;;;27.60;45.90;;;;;;5108302;27;45320;-67
2023/06/22 07:28:23;;;;;;;2.90;2.70;;;27.60;45.80;;;;;;5108565;27;45291;-67
2023/06/22 07:30:52;;;;;;;3.08;2.70;;;27.60;45.80;;;;;;5108753;27;45287;-67
2023/06/22 07:33:19;;;;;;;4.55;2.70;;;27.60;45.80;;;;;;5108152;27;46691;-67
2023/06/22 07:35:47;;;;;;;2.63;2.42;;;27.60;45.80;;;;;;5108436;27;45423;-67
2023/06/22 07:38:14;;;;;;;2.78;2.42;;;27.60;45.90;;;;;;5108290;27;45331;-67
2023/06/22 07:40:42;;;;;;;3.40;2.60;;;27.60;45.80;;;;;;5108449;27;45333;-67
2023/06/22 07:43:09;;;;;;;5.65;2.75;;;27.60;45.80;;;;;;5108294;27;45569;-68
2023/06/22 07:45:35;;;;;;;2.97;2.55;;;27.60;45.80;;;;;;5108305;27;45339;-68
2023/06/22 07:48:04;;;;;;;2.88;2.60;;;27.60;45.80;;;;;;5108358;27;45302;-68
2023/06/22 07:50:31;;;;;;;2.83;2.60;;;27.60;45.80;;;;;;5108485;27;45490;-68
2023/06/22 07:52:57;;;;;;;3.47;3.17;;;27.60;45.80;;;;;;5108125;27;47422;-68
2023/06/22 07:55:24;;;;;;;2.88;2.55;;;27.60;45.70;;;;;;5108203;27;45352;-68
2023/06/22 07:57:52;;;;;;;3.15;2.17;;;27.60;45.70;;;;;;5108151;27;45370;-68
2023/06/22 08:00:20;;;;;;;2.70;2.50;;;27.70;45.60;;;;;;5107933;27;45312;-68
2023/06/22 08:02:47;;;;;;;3.83;2.80;;;27.70;45.60;;;;;;5107501;27;46193;-68
2023/06/22 08:05:17;;;;;;;3.63;2.83;;;27.70;45.50;;;;;;5108049;27;45370;-68
2023/06/22 08:07:44;;;;;;;2.78;2.58;;;27.80;45.40;;;;;;5107996;27;45305;-68
2023/06/22 08:10:11;;;;;;;3.10;2.67;;;27.80;45.40;;;;;;5108226;27;45424;-68
2023/06/22 08:12:38;;;;;;;2.97;2.67;;;27.80;45.50;;;;;;5107682;27;45305;-68
2023/06/22 08:15:07;;;;;;;3.20;2.90;;;27.80;45.40;;;;;;5107721;27;45328;-68
2023/06/22 08:17:34;;;;;;;3.53;2.40;;;27.80;45.50;;;;;;5099404;27;45311;-68
2023/06/22 08:20:01;;;;;;;3.20;2.90;;;27.80;45.40;;;;;;5108057;27;45428;-68
2023/06/22 08:22:30;;;;;;;5.22;2.78;;;27.80;45.30;;;;;;5107731;27;45268;-68
2023/06/22 08:24:56;;;;;;;3.08;2.70;;;27.80;46.00;;;;;;5107724;27;45385;-69
2023/06/22 08:27:23;;;;;;;2.83;2.63;;;27.80;45.40;;;;;;5107685;27;45249;-69
2023/06/22 08:29:51;;;;;;;3.53;3.22;;;27.80;45.30;;;;;;5107736;27;45408;-68
2023/06/22 08:32:18;;;;;;;3.85;2.88;;;27.80;45.20;;;;;;5107457;27;45457;-68
2023/06/22 08:34:45;;;;;;;2.95;2.75;;;27.80;45.30;;;;;;5107458;27;45332;-68
2023/06/22 08:37:12;;;;;;;2.70;2.50;;;27.90;45.10;;;;;;5107608;27;45448;-68
2023/06/22 08:39:41;;;;;;;3.35;2.53;;;27.90;45.00;;;;;;5107526;27;45417;-68
2023/06/22 08:42:08;;;;;;;2.92;2.70;;;27.90;44.90;;;;;;5107388;27;45499;-69
2023/06/22 08:44:35;;;;;;;2.97;2.67;;;28.00;45.00;;;;;;5107421;27;45369;-68
2023/06/22 08:47:02;;;;;;;3.33;2.33;;;28.00;44.90;;;;;;5107374;27;45369;-68
2023/06/22 08:49:28;;;;;;;3.05;2.70;;;28.00;44.80;;;;;;5107498;27;45478;-68
2023/06/22 08:51:56;;;;;;;3.45;2.80;;;28.00;45.30;;;;;;5107092;27;45270;-68
2023/06/22 08:54:23;;;;;;;3.42;2.90;;;28.00;45.50;;;;;;5107182;27;45470;-67
2023/06/22 08:56:51;;;;;;;2.65;2.45;;;28.10;45.50;;;;;;5106835;27;45434;-67
2023/06/22 08:59:18;;;;;;;4.15;2.67;;;28.10;45.50;;;;;;5107457;27;45404;-68
2023/06/22 09:01:48;;;;;;;3.17;2.58;;;28.10;45.40;;;;;;5106729;27;45621;-68
2023/06/22 09:04:15;;;;;;;3.20;2.90;;;28.10;45.10;;;;;;5107048;27;45383;-68
2023/06/22 09:06:44;;;;;;;2.67;2.40;;;28.10;45.30;;;;;;5106908;27;45332;-68
2023/06/22 09:09:11;;;;;;;3.63;2.80;;;28.20;45.30;;;;;;5107037;27;45362;-67
2023/06/22 09:11:38;;;;;;;2.92;2.30;;;28.20;45.30;;;;;;5105581;27;46384;-68
2023/06/22 09:14:06;;;;;;;2.75;2.53;;;28.20;45.30;;;;;;5106613;27;45333;-68
2023/06/22 09:16:33;;;;;;;4.20;2.83;;;28.20;45.30;;;;;;5106550;27;45352;-68
2023/06/22 09:19:00;;;;;;;2.70;2.50;;;28.30;45.50;;;;;;5106695;27;45416;-68
2023/06/22 09:21:27;;;;;;;4.28;2.88;;;28.30;45.50;;;;;;5106525;27;45269;-68
2023/06/22 09:23:53;;;;;;;2.78;2.55;;;28.30;45.40;;;;;;5106487;27;45320;-67
2023/06/22 09:26:20;;;;;;;3.63;2.90;;;28.30;45.40;;;;;;5106817;27;45350;-68
2023/06/22 09:28:47;;;;;;;5.22;3.42;;;28.40;45.50;;;;;;5106520;27;45364;-68
2023/06/22 09:31:16;;;;;;;7.38;4.32;;;28.40;47.70;;;;;;5106582;27;47972;-68
2023/06/22 09:33:43;;;;;;;7.20;4.20;;;28.40;49.40;;;;;;5106609;27;45907;-68
2023/06/22 09:36:10;;;;;;;8.05;4.57;;;28.50;50.30;;;;;;5106559;27;45390;-67
2023/06/22 09:38:37;;;;;;;8.70;4.90;;;28.50;50.40;;;;;;5106646;27;45423;-68
2023/06/22 09:41:03;;;;;;;10.95;4.95;;;28.50;50.70;;;;;;5106368;27;46415;-66
2023/06/22 09:43:31;;;;;;;10.10;4.88;;;28.60;50.60;;;;;;5106256;27;45267;-68
2023/06/22 09:45:58;;;;;;;9.07;4.78;;;28.60;51.50;;;;;;5106344;27;45456;-68
2023/06/22 09:48:26;;;;;;;8.48;5.25;;;28.60;52.40;;;;;;5106285;27;45404;-67
2023/06/22 09:50:53;;;;;;;9.40;5.10;;;28.70;52.80;;;;;;5105930;27;45429;-66
2023/06/22 09:53:20;;;;;;;8.93;5.22;;;28.80;52.30;;;;;;5105917;27;45355;-66
2023/06/22 09:55:47;;;;;;;8.77;4.90;;;28.80;51.90;;;;;;5106082;27;45363;-67
2023/06/22 09:58:13;;;;;;;9.60;5.15;;;28.70;52.00;;;;;;5106391;27;45415;-66
2023/06/22 10:00:41;;;;;;;7.72;5.10;;;28.80;51.90;;;;;;5105878;27;46352;-67
2023/06/22 10:03:08;;;;;;;9.27;5.00;;;28.90;52.10;;;;;;5105931;27;45344;-68
2023/06/22 10:05:37;;;;;;;7.55;5.22;;;28.90;51.90;;;;;;5105840;27;45300;-67
2023/06/22 10:08:04;;;;;;;9.23;5.00;;;29.00;52.50;;;;;;5106019;27;45372;-68
2023/06/22 10:10:30;;;;;;;6.53;5.07;;;29.00;52.50;;;;;;5105893;27;45378;-67
2023/06/22 10:12:58;;;;;;;7.32;5.00;;;29.10;52.20;;;;;;5105975;27;45360;-68
2023/06/22 10:15:26;;;;;;;8.02;5.45;;;29.10;52.30;;;;;;5106170;27;45255;-67
2023/06/22 10:17:53;;;;;;;10.15;5.47;;;29.20;52.20;;;;;;5106107;27;45489;-67
2023/06/22 10:20:22;;;;;;;10.35;4.95;;;29.20;52.10;;;;;;5105795;27;45479;-67
2023/06/22 10:22:50;;;;;;;9.65;5.53;;;29.30;51.90;;;;;;5108258;27;45327;-67
2023/06/22 10:25:17;;;;;;;7.70;5.35;;;29.30;51.70;;;;;;5109645;27;45325;-68
2023/06/22 10:27:44;;;;;;;8.10;5.05;;;29.40;51.60;;;;;;5109531;27;45551;-67
2023/06/22 10:30:12;;;;;;;10.07;5.38;;;29.40;51.40;;;;;;5109181;27;45386;-67
2023/06/22 10:32:39;;;;;;;6.07;4.50;;;29.50;51.40;;;;;;5109390;27;45392;-67
2023/06/22 10:35:07;;;;;;;7.63;4.82;;;29.50;51.30;;;;;;5109354;27;45266;-67
2023/06/22 10:37:34;;;;;;;8.75;4.97;;;29.50;51.30;;;;;;5101402;27;45312;-67
2023/06/22 10:40:02;;;;;;;10.18;4.90;;;29.60;52.00;;;;;;5109059;27;45433;-67
2023/06/22 10:42:29;;;;;;;8.55;5.07;;;29.60;51.10;;;;;;5109145;27;45320;-67
2023/06/22 10:44:56;;;;;;;8.10;5.00;;;29.60;51.10;;;;;;5109277;27;45319;-67
2023/06/22 10:47:23;;;;;;;7.10;4.72;;;29.60;51.10;;;;;;5109279;27;45338;-68
2023/06/22 10:49:50;;;;;;;8.10;4.90;;;29.60;51.80;;;;;;5108824;27;45446;-68
2023/06/22 10:52:17;;;;;;;9.05;5.10;;;29.60;51.20;;;;;;5108844;27;45477;-67
2023/06/22 10:54:44;;;;;;;7.30;4.40;;;29.60;51.10;;;;;;5109219;27;45230;-67
2023/06/22 10:57:12;;;;;;;8.30;5.25;;;29.70;50.50;;;;;;5109164;27;45311;-67
2023/06/22 10:59:39;;;;;;;6.05;4.55;;;29.70;51.00;;;;;;5108838;27;45419;-68
2023/06/22 11:02:06;;;;;;;6.63;4.72;;;29.80;50.80;;;;;;5108513;27;45368;-68
2023/06/22 11:04:33;;;;;;;6.82;4.60;;;29.80;50.80;;;;;;5109230;27;45609;-67
2023/06/22 11:06:59;;;;;;;7.80;4.88;;;29.80;50.90;;;;;;5108918;27;45418;-67
2023/06/22 11:09:26;;;;;;;7.85;4.63;;;29.80;50.70;;;;;;5108521;27;45304;-66
2023/06/22 11:11:54;;;;;;;9.48;4.90;;;29.90;50.70;;;;;;5109378;27;45565;-68
2023/06/22 11:14:22;;;;;;;8.93;4.88;;;29.80;50.80;;;;;;5108720;27;45309;-67
2023/06/22 11:16:49;;;;;;;9.93;5.03;;;29.90;50.60;;;;;;5108856;27;45387;-67
2023/06/22 11:19:16;;;;;;;5.65;4.80;;;29.90;50.80;;;;;;5108189;27;45438;-67
2023/06/22 11:21:42;;;;;;;8.02;4.95;;;29.90;50.60;;;;;;5108314;27;45328;-67
2023/06/22 11:24:09;;;;;;;7.20;5.03;;;30.00;50.80;;;;;;5108510;27;45366;-67
2023/06/22 11:26:36;;;;;;;8.60;5.20;;;30.00;50.90;;;;;;5108652;27;45515;-68
2023/06/22 11:29:05;;;;;;;7.72;5.03;;;30.10;50.80;;;;;;5108251;27;47299;-67
2023/06/22 11:31:33;;;;;;;8.93;4.68;;;30.10;50.70;;;;;;5108203;27;45415;-68
2023/06/22 11:34:00;;;;;;;7.25;4.78;;;30.20;50.70;;;;;;5107654;27;45315;-68
2023/06/22 11:36:27;;;;;;;4.93;4.22;;;30.20;50.60;;;;;;5108642;27;45317;-68
2023/06/22 11:38:53;;;;;;;8.25;5.45;;;30.30;50.70;;;;;;5107775;27;45400;-68
2023/06/22 11:41:21;;;;;;;9.20;5.18;;;30.30;50.50;;;;;;5108366;27;45280;-68
2023/06/22 11:43:48;;;;;;;7.13;4.60;;;30.30;50.50;;;;;;5108192;27;45272;-68
2023/06/22 11:46:15;;;;;;;8.10;4.65;;;30.30;50.40;;;;;;5108490;27;45408;-69
2023/06/22 11:48:43;;;;;;;8.73;4.80;;;30.30;50.50;;;;;;5108020;27;46614;-69
2023/06/22 11:51:10;;;;;;;7.60;4.72;;;30.30;50.50;;;;;;5107998;27;45436;-68
2023/06/22 11:53:36;;;;;;;8.40;5.03;;;30.30;50.50;;;;;;5108214;27;45394;-68
2023/06/22 11:56:03;;;;;;;4.80;4.35;;;30.30;50.40;;;;;;5108140;27;45474;-68
2023/06/22 11:58:30;;;;;;;6.72;4.63;;;30.30;50.30;;;;;;5107705;27;45371;-68
2023/06/22 12:00:57;;;;;;;8.45;5.00;;;30.30;50.50;;;;;;5108025;27;45378;-69
2023/06/22 12:03:24;;;;;;;9.52;5.18;;;30.40;50.50;;;;;;5107939;27;45535;-68
2023/06/22 12:05:52;;;;;;;5.88;4.85;;;30.40;50.40;;;;;;5108319;27;45327;-68
2023/06/22 12:08:19;;;;;;;8.63;4.50;;;30.40;50.30;;;;;;5107596;27;46719;-68
2023/06/22 12:10:45;;;;;;;7.72;5.15;;;30.40;50.30;;;;;;5107637;27;45418;-68
2023/06/22 12:13:12;;;;;;;4.63;4.15;;;30.40;50.10;;;;;;5107796;27;45341;-68
2023/06/22 12:15:39;;;;;;;4.72;4.22;;;30.40;50.10;;;;;;5107807;27;45225;-68
2023/06/22 12:18:06;;;;;;;7.00;4.95;;;30.40;50.10;;;;;;5125982;27;46381;-69
2023/06/22 12:20:33;;;;;;;5.70;4.90;;;30.40;49.90;;;;;;5137461;27;45387;-69
2023/06/22 12:23:02;;;;;;;4.68;3.97;;;30.40;49.90;;;;;;5139271;27;45244;-69
2023/06/22 12:25:29;;;;;;;5.45;4.43;;;30.50;50.00;;;;;;5136663;27;45311;-69
2023/06/22 12:27:56;;;;;;;5.88;4.40;;;30.50;49.90;;;;;;5138538;27;45516;-69
2023/06/22 12:30:22;;;;;;;6.10;4.13;;;30.50;49.90;;;;;;5129308;27;45340;-69
2023/06/22 12:32:51;;;;;;;7.47;4.30;;;30.50;49.70;;;;;;5128425;27;45272;-70
2023/06/22 12:35:17;;;;;;;5.70;4.40;;;30.40;49.70;;;;;;5128557;27;45316;-69
2023/06/22 12:37:44;;;;;;;6.47;4.53;;;30.40;49.60;;;;;;5128123;27;46397;-70
2023/06/22 12:40:13;;;;;;;6.60;4.78;;;30.40;49.60;;;;;;5127814;27;45359;-69
2023/06/22 12:42:41;;;;;;;6.25;4.53;;;30.40;49.60;;;;;;5128383;27;45214;-69
2023/06/22 12:45:09;;;;;;;6.65;4.40;;;30.40;49.70;;;;;;5127016;27;45430;-69
2023/06/22 12:47:36;;;;;;;7.38;4.50;;;30.40;49.70;;;;;;5127868;27;45686;-69